sensor_id;sensor_type;location;lat;lon;timestamp;P1;durP1;ratioP1;P2;durP2;ratioP2
21183;SDS011;18176;49.502;11.754;2024-03-25T00:01:23;10.63;;;4.40;;
21183;SDS011;18176;49.502;11.754;2024-03-25T00:05:40;6.87;;;4.40;;
21183;SDS011;18176;49.502;11.754;2024-03-25T00:09:57;6.60;;;4.20;;
21183;SDS011;18176;49.502;11.754;2024-03-25T00:14:16;7.57;;;4.27;;
21183;SDS011;18176;49.502;11.754;2024-03-25T00:18:33;6.33;;;3.90;;
21183;SDS011;18176;49.502;11.754;2024-03-25T00:22:50;7.40;;;4.10;;
21183;SDS011;18176;49.502;11.754;2024-03-25T00:27:07;7.93;;;4.20;;
21183;SDS011;18176;49.502;11.754;2024-03-25T00:31:26;7.07;;;4.37;;
21183;SDS011;18176;49.502;11.754;2024-03-25T00:35:43;9.17;;;4.60;;
21183;SDS011;18176;49.502;11.754;2024-03-25T00:40:01;8.27;;;5.03;;
21183;SDS011;18176;49.502;11.754;2024-03-25T00:44:19;7.77;;;4.67;;
21183;SDS011;18176;49.502;11.754;2024-03-25T00:48:39;7.60;;;4.60;;
21183;SDS011;18176;49.502;11.754;2024-03-25T00:52:56;7.67;;;4.23;;
21183;SDS011;18176;49.502;11.754;2024-03-25T00:57:13;8.80;;;4.43;;
21183;SDS011;18176;49.502;11.754;2024-03-25T01:01:30;6.13;;;4.33;;
21183;SDS011;18176;49.502;11.754;2024-03-25T01:05:49;7.43;;;4.50;;
21183;SDS011;18176;49.502;11.754;2024-03-25T01:10:06;9.27;;;4.33;;
21183;SDS011;18176;49.502;11.754;2024-03-25T01:14:24;6.83;;;4.13;;
21183;SDS011;18176;49.502;11.754;2024-03-25T01:18:41;6.77;;;4.10;;
21183;SDS011;18176;49.502;11.754;2024-03-25T01:23:00;9.40;;;4.53;;
21183;SDS011;18176;49.502;11.754;2024-03-25T01:27:17;6.97;;;4.10;;
21183;SDS011;18176;49.502;11.754;2024-03-25T01:31:34;7.73;;;4.20;;
21183;SDS011;18176;49.502;11.754;2024-03-25T01:35:50;7.63;;;4.23;;
21183;SDS011;18176;49.502;11.754;2024-03-25T01:40:10;7.63;;;4.40;;
21183;SDS011;18176;49.502;11.754;2024-03-25T01:44:27;8.87;;;4.53;;
21183;SDS011;18176;49.502;11.754;2024-03-25T01:48:44;8.00;;;4.60;;
21183;SDS011;18176;49.502;11.754;2024-03-25T01:53:02;8.47;;;4.40;;
21183;SDS011;18176;49.502;11.754;2024-03-25T01:57:22;7.70;;;4.47;;
21183;SDS011;18176;49.502;11.754;2024-03-25T02:01:40;7.93;;;4.50;;
21183;SDS011;18176;49.502;11.754;2024-03-25T02:05:59;8.00;;;4.33;;
21183;SDS011;18176;49.502;11.754;2024-03-25T02:10:22;6.60;;;4.47;;
21183;SDS011;18176;49.502;11.754;2024-03-25T02:14:42;8.27;;;4.27;;
21183;SDS011;18176;49.502;11.754;2024-03-25T02:18:59;8.83;;;4.73;;
21183;SDS011;18176;49.502;11.754;2024-03-25T02:23:16;7.43;;;4.77;;
21183;SDS011;18176;49.502;11.754;2024-03-25T02:27:37;7.17;;;4.50;;
21183;SDS011;18176;49.502;11.754;2024-03-25T02:31:55;10.43;;;4.67;;
21183;SDS011;18176;49.502;11.754;2024-03-25T02:36:12;9.43;;;4.83;;
21183;SDS011;18176;49.502;11.754;2024-03-25T02:40:28;7.80;;;4.30;;
21183;SDS011;18176;49.502;11.754;2024-03-25T02:44:48;9.17;;;4.23;;
21183;SDS011;18176;49.502;11.754;2024-03-25T02:49:06;8.67;;;4.40;;
21183;SDS011;18176;49.502;11.754;2024-03-25T02:53:22;8.83;;;4.10;;
21183;SDS011;18176;49.502;11.754;2024-03-25T02:57:39;7.50;;;4.53;;
21183;SDS011;18176;49.502;11.754;2024-03-25T03:01:59;8.50;;;4.80;;
21183;SDS011;18176;49.502;11.754;2024-03-25T03:06:15;5.70;;;4.10;;
21183;SDS011;18176;49.502;11.754;2024-03-25T03:10:32;8.50;;;4.13;;
21183;SDS011;18176;49.502;11.754;2024-03-25T03:14:49;7.10;;;4.37;;
21183;SDS011;18176;49.502;11.754;2024-03-25T03:19:08;6.93;;;3.80;;
21183;SDS011;18176;49.502;11.754;2024-03-25T03:23:25;8.27;;;3.63;;
21183;SDS011;18176;49.502;11.754;2024-03-25T03:27:42;7.07;;;4.17;;
21183;SDS011;18176;49.502;11.754;2024-03-25T03:31:59;8.27;;;3.87;;
21183;SDS011;18176;49.502;11.754;2024-03-25T03:36:19;5.13;;;3.80;;
21183;SDS011;18176;49.502;11.754;2024-03-25T03:40:38;8.43;;;3.87;;
21183;SDS011;18176;49.502;11.754;2024-03-25T03:44:55;7.57;;;4.03;;
21183;SDS011;18176;49.502;11.754;2024-03-25T03:49:12;7.53;;;3.93;;
21183;SDS011;18176;49.502;11.754;2024-03-25T03:53:31;7.50;;;4.13;;
21183;SDS011;18176;49.502;11.754;2024-03-25T03:57:49;6.90;;;3.83;;
21183;SDS011;18176;49.502;11.754;2024-03-25T04:02:07;8.10;;;4.20;;
21183;SDS011;18176;49.502;11.754;2024-03-25T04:06:24;8.43;;;3.80;;
21183;SDS011;18176;49.502;11.754;2024-03-25T04:10:44;8.00;;;4.00;;
21183;SDS011;18176;49.502;11.754;2024-03-25T04:15:02;6.07;;;3.87;;
21183;SDS011;18176;49.502;11.754;2024-03-25T04:19:19;7.40;;;3.60;;
21183;SDS011;18176;49.502;11.754;2024-03-25T04:23:39;6.23;;;3.90;;
21183;SDS011;18176;49.502;11.754;2024-03-25T04:27:59;8.83;;;4.73;;
21183;SDS011;18176;49.502;11.754;2024-03-25T04:32:16;7.23;;;4.00;;
21183;SDS011;18176;49.502;11.754;2024-03-25T04:36:33;6.07;;;3.67;;
21183;SDS011;18176;49.502;11.754;2024-03-25T04:40:50;8.33;;;4.53;;
21183;SDS011;18176;49.502;11.754;2024-03-25T04:45:09;7.97;;;4.03;;
21183;SDS011;18176;49.502;11.754;2024-03-25T04:49:27;11.60;;;4.10;;
21183;SDS011;18176;49.502;11.754;2024-03-25T04:53:44;8.53;;;4.43;;
21183;SDS011;18176;49.502;11.754;2024-03-25T04:58:01;7.90;;;3.93;;
21183;SDS011;18176;49.502;11.754;2024-03-25T05:02:20;6.87;;;4.40;;
21183;SDS011;18176;49.502;11.754;2024-03-25T05:06:37;8.90;;;4.70;;
21183;SDS011;18176;49.502;11.754;2024-03-25T05:10:54;10.17;;;4.30;;
21183;SDS011;18176;49.502;11.754;2024-03-25T05:15:11;5.83;;;4.30;;
21183;SDS011;18176;49.502;11.754;2024-03-25T05:19:31;8.13;;;4.53;;
21183;SDS011;18176;49.502;11.754;2024-03-25T05:23:48;8.47;;;4.50;;
21183;SDS011;18176;49.502;11.754;2024-03-25T05:28:04;10.03;;;4.60;;
21183;SDS011;18176;49.502;11.754;2024-03-25T05:32:21;8.77;;;4.70;;
21183;SDS011;18176;49.502;11.754;2024-03-25T05:36:41;10.57;;;4.80;;
21183;SDS011;18176;49.502;11.754;2024-03-25T05:40:58;6.83;;;4.40;;
21183;SDS011;18176;49.502;11.754;2024-03-25T05:45:15;11.63;;;4.73;;
21183;SDS011;18176;49.502;11.754;2024-03-25T05:49:32;11.80;;;4.70;;
21183;SDS011;18176;49.502;11.754;2024-03-25T05:53:51;8.07;;;4.60;;
21183;SDS011;18176;49.502;11.754;2024-03-25T05:58:08;9.37;;;4.80;;
21183;SDS011;18176;49.502;11.754;2024-03-25T06:02:25;8.03;;;4.67;;
21183;SDS011;18176;49.502;11.754;2024-03-25T06:06:42;14.03;;;5.20;;
21183;SDS011;18176;49.502;11.754;2024-03-25T06:11:04;8.93;;;4.90;;
21183;SDS011;18176;49.502;11.754;2024-03-25T06:15:21;8.10;;;4.97;;
21183;SDS011;18176;49.502;11.754;2024-03-25T06:19:38;11.03;;;5.70;;
21183;SDS011;18176;49.502;11.754;2024-03-25T06:23:55;8.53;;;4.90;;
21183;SDS011;18176;49.502;11.754;2024-03-25T06:28:14;10.03;;;4.73;;
21183;SDS011;18176;49.502;11.754;2024-03-25T06:32:31;9.80;;;5.17;;
21183;SDS011;18176;49.502;11.754;2024-03-25T06:37:03;10.03;;;4.47;;
21183;SDS011;18176;49.502;11.754;2024-03-25T06:41:20;6.57;;;4.37;;
21183;SDS011;18176;49.502;11.754;2024-03-25T06:45:39;9.07;;;4.00;;
21183;SDS011;18176;49.502;11.754;2024-03-25T06:49:56;9.70;;;4.57;;
21183;SDS011;18176;49.502;11.754;2024-03-25T06:54:13;11.10;;;5.03;;
21183;SDS011;18176;49.502;11.754;2024-03-25T06:58:30;8.13;;;4.33;;
21183;SDS011;18176;49.502;11.754;2024-03-25T07:02:50;9.93;;;4.50;;
21183;SDS011;18176;49.502;11.754;2024-03-25T07:07:07;7.03;;;4.03;;
21183;SDS011;18176;49.502;11.754;2024-03-25T07:11:24;6.97;;;3.93;;
21183;SDS011;18176;49.502;11.754;2024-03-25T07:15:40;6.23;;;4.10;;
21183;SDS011;18176;49.502;11.754;2024-03-25T07:20:02;7.63;;;4.10;;
21183;SDS011;18176;49.502;11.754;2024-03-25T07:24:20;8.63;;;3.83;;
21183;SDS011;18176;49.502;11.754;2024-03-25T07:28:37;8.07;;;4.30;;
21183;SDS011;18176;49.502;11.754;2024-03-25T07:32:54;9.73;;;4.60;;
21183;SDS011;18176;49.502;11.754;2024-03-25T07:37:14;9.10;;;3.83;;
21183;SDS011;18176;49.502;11.754;2024-03-25T07:41:30;8.50;;;3.90;;
21183;SDS011;18176;49.502;11.754;2024-03-25T07:45:47;7.00;;;3.30;;
21183;SDS011;18176;49.502;11.754;2024-03-25T07:50:05;8.40;;;3.40;;
21183;SDS011;18176;49.502;11.754;2024-03-25T07:54:26;9.20;;;3.93;;
21183;SDS011;18176;49.502;11.754;2024-03-25T07:58:44;6.70;;;3.73;;
21183;SDS011;18176;49.502;11.754;2024-03-25T08:03:01;7.47;;;4.00;;
21183;SDS011;18176;49.502;11.754;2024-03-25T08:07:20;6.67;;;3.40;;
21183;SDS011;18176;49.502;11.754;2024-03-25T08:11:42;8.30;;;3.93;;
21183;SDS011;18176;49.502;11.754;2024-03-25T08:15:59;10.20;;;3.50;;
21183;SDS011;18176;49.502;11.754;2024-03-25T08:20:16;9.03;;;3.40;;
21183;SDS011;18176;49.502;11.754;2024-03-25T08:24:33;7.00;;;3.77;;
21183;SDS011;18176;49.502;11.754;2024-03-25T08:28:52;8.93;;;3.43;;
21183;SDS011;18176;49.502;11.754;2024-03-25T08:33:09;8.17;;;4.07;;
21183;SDS011;18176;49.502;11.754;2024-03-25T08:37:26;8.07;;;3.50;;
21183;SDS011;18176;49.502;11.754;2024-03-25T08:41:43;7.57;;;3.20;;
21183;SDS011;18176;49.502;11.754;2024-03-25T08:46:02;4.83;;;2.83;;
21183;SDS011;18176;49.502;11.754;2024-03-25T08:50:20;4.63;;;2.80;;
21183;SDS011;18176;49.502;11.754;2024-03-25T08:54:37;5.67;;;2.67;;
21183;SDS011;18176;49.502;11.754;2024-03-25T08:58:53;7.13;;;2.73;;
21183;SDS011;18176;49.502;11.754;2024-03-25T09:03:13;4.80;;;2.60;;
21183;SDS011;18176;49.502;11.754;2024-03-25T09:07:30;5.37;;;2.30;;
21183;SDS011;18176;49.502;11.754;2024-03-25T09:11:47;7.00;;;2.47;;
21183;SDS011;18176;49.502;11.754;2024-03-25T09:16:04;7.70;;;2.60;;
21183;SDS011;18176;49.502;11.754;2024-03-25T09:20:24;6.40;;;2.40;;
21183;SDS011;18176;49.502;11.754;2024-03-25T09:24:40;4.47;;;2.37;;
21183;SDS011;18176;49.502;11.754;2024-03-25T09:28:57;5.33;;;2.30;;
21183;SDS011;18176;49.502;11.754;2024-03-25T09:33:14;6.13;;;2.67;;
21183;SDS011;18176;49.502;11.754;2024-03-25T09:37:34;7.30;;;2.30;;
21183;SDS011;18176;49.502;11.754;2024-03-25T09:41:51;4.67;;;2.10;;
21183;SDS011;18176;49.502;11.754;2024-03-25T09:46:13;3.00;;;1.80;;
21183;SDS011;18176;49.502;11.754;2024-03-25T09:50:30;3.10;;;1.43;;
21183;SDS011;18176;49.502;11.754;2024-03-25T09:54:50;4.43;;;2.17;;
21183;SDS011;18176;49.502;11.754;2024-03-25T09:59:07;4.67;;;1.90;;
21183;SDS011;18176;49.502;11.754;2024-03-25T10:03:24;5.73;;;1.97;;
21183;SDS011;18176;49.502;11.754;2024-03-25T10:07:41;5.57;;;2.17;;
21183;SDS011;18176;49.502;11.754;2024-03-25T10:12:00;4.87;;;2.30;;
21183;SDS011;18176;49.502;11.754;2024-03-25T10:16:17;4.70;;;1.70;;
21183;SDS011;18176;49.502;11.754;2024-03-25T10:20:34;4.50;;;1.80;;
21183;SDS011;18176;49.502;11.754;2024-03-25T10:24:51;4.23;;;1.80;;
21183;SDS011;18176;49.502;11.754;2024-03-25T10:29:10;2.60;;;1.50;;
21183;SDS011;18176;49.502;11.754;2024-03-25T10:33:27;2.53;;;1.40;;
21183;SDS011;18176;49.502;11.754;2024-03-25T10:37:44;6.10;;;2.20;;
21183;SDS011;18176;49.502;11.754;2024-03-25T10:42:02;3.70;;;1.77;;
21183;SDS011;18176;49.502;11.754;2024-03-25T10:46:24;3.70;;;1.50;;
21183;SDS011;18176;49.502;11.754;2024-03-25T10:50:41;4.07;;;1.33;;
21183;SDS011;18176;49.502;11.754;2024-03-25T10:54:59;4.22;;;1.40;;
21183;SDS011;18176;49.502;11.754;2024-03-25T10:59:17;3.03;;;1.30;;
21183;SDS011;18176;49.502;11.754;2024-03-25T11:03:40;2.20;;;1.25;;
21183;SDS011;18176;49.502;11.754;2024-03-25T11:07:58;4.05;;;1.60;;
21183;SDS011;18176;49.502;11.754;2024-03-25T11:12:31;4.18;;;1.60;;
21183;SDS011;18176;49.502;11.754;2024-03-25T11:16:53;2.88;;;1.38;;
21183;SDS011;18176;49.502;11.754;2024-03-25T11:21:14;2.60;;;1.40;;
21183;SDS011;18176;49.502;11.754;2024-03-25T11:25:41;3.40;;;1.58;;
21183;SDS011;18176;49.502;11.754;2024-03-25T11:29:58;2.65;;;1.00;;
21183;SDS011;18176;49.502;11.754;2024-03-25T11:34:15;2.42;;;1.20;;
21183;SDS011;18176;49.502;11.754;2024-03-25T11:38:34;2.35;;;1.30;;
21183;SDS011;18176;49.502;11.754;2024-03-25T11:42:51;4.13;;;1.50;;
21183;SDS011;18176;49.502;11.754;2024-03-25T11:47:09;6.55;;;1.88;;
21183;SDS011;18176;49.502;11.754;2024-03-25T11:51:27;3.17;;;1.17;;
21183;SDS011;18176;49.502;11.754;2024-03-25T11:55:48;2.83;;;1.30;;
21183;SDS011;18176;49.502;11.754;2024-03-25T12:00:07;1.48;;;1.20;;
21183;SDS011;18176;49.502;11.754;2024-03-25T12:04:31;1.80;;;1.13;;
21183;SDS011;18176;49.502;11.754;2024-03-25T12:08:48;2.55;;;1.30;;
21183;SDS011;18176;49.502;11.754;2024-03-25T12:13:23;3.42;;;1.48;;
21183;SDS011;18176;49.502;11.754;2024-03-25T12:17:41;3.28;;;1.40;;
21183;SDS011;18176;49.502;11.754;2024-03-25T12:21:59;3.90;;;1.40;;
21183;SDS011;18176;49.502;11.754;2024-03-25T12:26:16;3.75;;;1.52;;
21183;SDS011;18176;49.502;11.754;2024-03-25T12:30:40;3.25;;;1.42;;
21183;SDS011;18176;49.502;11.754;2024-03-25T12:35:07;3.72;;;1.38;;
21183;SDS011;18176;49.502;11.754;2024-03-25T12:39:25;2.55;;;1.40;;
21183;SDS011;18176;49.502;11.754;2024-03-25T12:43:43;2.35;;;1.52;;
21183;SDS011;18176;49.502;11.754;2024-03-25T12:48:03;2.97;;;1.60;;
21183;SDS011;18176;49.502;11.754;2024-03-25T12:52:21;2.30;;;1.58;;
21183;SDS011;18176;49.502;11.754;2024-03-25T12:56:38;2.80;;;1.55;;
21183;SDS011;18176;49.502;11.754;2024-03-25T13:00:55;2.42;;;1.52;;
21183;SDS011;18176;49.502;11.754;2024-03-25T13:05:14;1.98;;;1.38;;
21183;SDS011;18176;49.502;11.754;2024-03-25T13:09:31;5.82;;;1.60;;
21183;SDS011;18176;49.502;11.754;2024-03-25T13:13:49;2.75;;;1.60;;
21183;SDS011;18176;49.502;11.754;2024-03-25T13:18:06;3.85;;;1.63;;
21183;SDS011;18176;49.502;11.754;2024-03-25T13:22:25;1.60;;;1.35;;
21183;SDS011;18176;49.502;11.754;2024-03-25T13:26:42;4.07;;;1.98;;
21183;SDS011;18176;49.502;11.754;2024-03-25T13:30:59;1.77;;;1.30;;
21183;SDS011;18176;49.502;11.754;2024-03-25T13:35:16;2.60;;;1.70;;
21183;SDS011;18176;49.502;11.754;2024-03-25T13:39:35;1.75;;;1.40;;
21183;SDS011;18176;49.502;11.754;2024-03-25T13:43:52;3.65;;;1.70;;
21183;SDS011;18176;49.502;11.754;2024-03-25T13:48:09;5.53;;;1.92;;
21183;SDS011;18176;49.502;11.754;2024-03-25T13:52:26;2.35;;;1.63;;
21183;SDS011;18176;49.502;11.754;2024-03-25T13:56:45;4.32;;;1.50;;
21183;SDS011;18176;49.502;11.754;2024-03-25T14:01:03;4.47;;;1.67;;
21183;SDS011;18176;49.502;11.754;2024-03-25T14:05:19;2.42;;;1.50;;
21183;SDS011;18176;49.502;11.754;2024-03-25T14:09:36;1.67;;;1.33;;
21183;SDS011;18176;49.502;11.754;2024-03-25T14:13:56;2.15;;;1.40;;
21183;SDS011;18176;49.502;11.754;2024-03-25T14:18:13;3.17;;;1.80;;
21183;SDS011;18176;49.502;11.754;2024-03-25T14:22:30;4.25;;;1.88;;
21183;SDS011;18176;49.502;11.754;2024-03-25T14:26:47;2.30;;;1.75;;
21183;SDS011;18176;49.502;11.754;2024-03-25T14:31:06;7.47;;;2.92;;
21183;SDS011;18176;49.502;11.754;2024-03-25T14:35:23;3.60;;;1.73;;
21183;SDS011;18176;49.502;11.754;2024-03-25T14:39:40;1.73;;;1.48;;
21183;SDS011;18176;49.502;11.754;2024-03-25T14:43:58;4.95;;;1.60;;
21183;SDS011;18176;49.502;11.754;2024-03-25T14:48:17;3.95;;;2.13;;
21183;SDS011;18176;49.502;11.754;2024-03-25T14:52:34;5.82;;;2.15;;
21183;SDS011;18176;49.502;11.754;2024-03-25T14:56:51;4.55;;;1.88;;
21183;SDS011;18176;49.502;11.754;2024-03-25T15:01:08;2.88;;;1.60;;
21183;SDS011;18176;49.502;11.754;2024-03-25T15:05:28;8.18;;;4.40;;
21183;SDS011;18176;49.502;11.754;2024-03-25T15:09:45;3.30;;;1.40;;
21183;SDS011;18176;49.502;11.754;2024-03-25T15:14:01;3.17;;;1.63;;
21183;SDS011;18176;49.502;11.754;2024-03-25T15:18:18;2.00;;;1.33;;
21183;SDS011;18176;49.502;11.754;2024-03-25T15:22:38;4.32;;;1.55;;
21183;SDS011;18176;49.502;11.754;2024-03-25T15:26:55;3.17;;;1.75;;
21183;SDS011;18176;49.502;11.754;2024-03-25T15:31:12;4.55;;;2.67;;
21183;SDS011;18176;49.502;11.754;2024-03-25T15:35:28;2.55;;;1.50;;
21183;SDS011;18176;49.502;11.754;2024-03-25T15:39:48;2.38;;;1.50;;
21183;SDS011;18176;49.502;11.754;2024-03-25T15:44:05;4.68;;;2.03;;
21183;SDS011;18176;49.502;11.754;2024-03-25T15:48:22;5.57;;;1.77;;
21183;SDS011;18176;49.502;11.754;2024-03-25T15:52:39;3.78;;;1.40;;
21183;SDS011;18176;49.502;11.754;2024-03-25T15:56:59;1.95;;;1.60;;
21183;SDS011;18176;49.502;11.754;2024-03-25T16:01:15;3.25;;;1.52;;
21183;SDS011;18176;49.502;11.754;2024-03-25T16:05:32;3.70;;;1.60;;
21183;SDS011;18176;49.502;11.754;2024-03-25T16:09:49;3.03;;;1.67;;
21183;SDS011;18176;49.502;11.754;2024-03-25T16:14:09;3.25;;;1.95;;
21183;SDS011;18176;49.502;11.754;2024-03-25T16:18:26;4.85;;;1.60;;
21183;SDS011;18176;49.502;11.754;2024-03-25T16:22:43;2.72;;;1.77;;
21183;SDS011;18176;49.502;11.754;2024-03-25T16:27:03;2.05;;;1.38;;
21183;SDS011;18176;49.502;11.754;2024-03-25T16:31:22;2.83;;;1.70;;
21183;SDS011;18176;49.502;11.754;2024-03-25T16:35:39;4.85;;;2.42;;
21183;SDS011;18176;49.502;11.754;2024-03-25T16:39:56;3.30;;;1.90;;
21183;SDS011;18176;49.502;11.754;2024-03-25T16:44:13;4.07;;;1.90;;
21183;SDS011;18176;49.502;11.754;2024-03-25T16:48:32;3.90;;;1.85;;
21183;SDS011;18176;49.502;11.754;2024-03-25T16:52:49;3.17;;;1.90;;
21183;SDS011;18176;49.502;11.754;2024-03-25T16:57:06;2.67;;;1.98;;
21183;SDS011;18176;49.502;11.754;2024-03-25T17:01:23;4.57;;;2.28;;
21183;SDS011;18176;49.502;11.754;2024-03-25T17:05:42;3.88;;;2.08;;
21183;SDS011;18176;49.502;11.754;2024-03-25T17:09:59;2.58;;;1.35;;
21183;SDS011;18176;49.502;11.754;2024-03-25T17:14:16;3.42;;;1.33;;
21183;SDS011;18176;49.502;11.754;2024-03-25T17:18:33;2.90;;;1.40;;
21183;SDS011;18176;49.502;11.754;2024-03-25T17:22:52;4.03;;;1.77;;
21183;SDS011;18176;49.502;11.754;2024-03-25T17:27:09;3.53;;;1.80;;
21183;SDS011;18176;49.502;11.754;2024-03-25T17:31:26;3.43;;;1.60;;
21183;SDS011;18176;49.502;11.754;2024-03-25T17:35:43;3.17;;;1.53;;
21183;SDS011;18176;49.502;11.754;2024-03-25T17:40:03;3.77;;;1.60;;
21183;SDS011;18176;49.502;11.754;2024-03-25T17:44:21;5.47;;;1.60;;
21183;SDS011;18176;49.502;11.754;2024-03-25T17:48:38;5.57;;;2.60;;
21183;SDS011;18176;49.502;11.754;2024-03-25T17:52:55;3.63;;;2.10;;
21183;SDS011;18176;49.502;11.754;2024-03-25T17:57:15;5.20;;;2.20;;
21183;SDS011;18176;49.502;11.754;2024-03-25T18:01:31;4.30;;;2.17;;
21183;SDS011;18176;49.502;11.754;2024-03-25T18:05:49;4.30;;;2.50;;
21183;SDS011;18176;49.502;11.754;2024-03-25T18:10:07;4.27;;;2.20;;
21183;SDS011;18176;49.502;11.754;2024-03-25T18:14:27;2.17;;;1.73;;
21183;SDS011;18176;49.502;11.754;2024-03-25T18:18:44;4.37;;;2.10;;
21183;SDS011;18176;49.502;11.754;2024-03-25T18:23:00;7.10;;;3.50;;
21183;SDS011;18176;49.502;11.754;2024-03-25T18:27:17;11.40;;;5.70;;
21183;SDS011;18176;49.502;11.754;2024-03-25T18:31:37;13.80;;;7.60;;
21183;SDS011;18176;49.502;11.754;2024-03-25T18:35:58;33.93;;;14.53;;
21183;SDS011;18176;49.502;11.754;2024-03-25T18:40:16;43.63;;;19.97;;
21183;SDS011;18176;49.502;11.754;2024-03-25T18:44:33;70.37;;;30.93;;
21183;SDS011;18176;49.502;11.754;2024-03-25T18:48:52;18.83;;;9.10;;
21183;SDS011;18176;49.502;11.754;2024-03-25T18:53:09;10.87;;;6.27;;
21183;SDS011;18176;49.502;11.754;2024-03-25T18:57:26;12.50;;;8.33;;
21183;SDS011;18176;49.502;11.754;2024-03-25T19:01:43;10.80;;;6.50;;
21183;SDS011;18176;49.502;11.754;2024-03-25T19:06:03;11.67;;;6.43;;
21183;SDS011;18176;49.502;11.754;2024-03-25T19:10:22;7.13;;;4.70;;
21183;SDS011;18176;49.502;11.754;2024-03-25T19:14:39;7.53;;;4.50;;
21183;SDS011;18176;49.502;11.754;2024-03-25T19:18:56;14.93;;;7.63;;
21183;SDS011;18176;49.502;11.754;2024-03-25T19:23:16;9.33;;;4.33;;
21183;SDS011;18176;49.502;11.754;2024-03-25T19:27:33;14.23;;;6.53;;
21183;SDS011;18176;49.502;11.754;2024-03-25T19:31:50;12.10;;;7.20;;
21183;SDS011;18176;49.502;11.754;2024-03-25T19:36:07;11.77;;;6.90;;
21183;SDS011;18176;49.502;11.754;2024-03-25T19:40:27;13.67;;;7.30;;
21183;SDS011;18176;49.502;11.754;2024-03-25T19:44:45;13.63;;;7.30;;
21183;SDS011;18176;49.502;11.754;2024-03-25T19:49:02;10.73;;;6.63;;
21183;SDS011;18176;49.502;11.754;2024-03-25T19:53:19;16.00;;;8.10;;
21183;SDS011;18176;49.502;11.754;2024-03-25T19:57:38;14.83;;;8.43;;
21183;SDS011;18176;49.502;11.754;2024-03-25T20:01:55;14.27;;;8.43;;
21183;SDS011;18176;49.502;11.754;2024-03-25T20:06:12;13.83;;;7.20;;
21183;SDS011;18176;49.502;11.754;2024-03-25T20:10:29;16.87;;;9.77;;
21183;SDS011;18176;49.502;11.754;2024-03-25T20:14:49;15.83;;;7.80;;
21183;SDS011;18176;49.502;11.754;2024-03-25T20:19:05;18.67;;;8.00;;
21183;SDS011;18176;49.502;11.754;2024-03-25T20:23:22;13.73;;;7.57;;
21183;SDS011;18176;49.502;11.754;2024-03-25T20:27:42;13.10;;;7.60;;
21183;SDS011;18176;49.502;11.754;2024-03-25T20:32:02;17.27;;;9.57;;
21183;SDS011;18176;49.502;11.754;2024-03-25T20:36:20;17.63;;;9.80;;
21183;SDS011;18176;49.502;11.754;2024-03-25T20:40:36;23.03;;;12.23;;
21183;SDS011;18176;49.502;11.754;2024-03-25T20:44:53;20.43;;;11.97;;
21183;SDS011;18176;49.502;11.754;2024-03-25T20:49:13;19.80;;;10.87;;
21183;SDS011;18176;49.502;11.754;2024-03-25T20:53:30;16.33;;;9.63;;
21183;SDS011;18176;49.502;11.754;2024-03-25T20:57:46;18.83;;;10.03;;
21183;SDS011;18176;49.502;11.754;2024-03-25T21:02:03;17.53;;;8.70;;
21183;SDS011;18176;49.502;11.754;2024-03-25T21:06:23;15.73;;;8.80;;
21183;SDS011;18176;49.502;11.754;2024-03-25T21:10:40;25.33;;;11.07;;
21183;SDS011;18176;49.502;11.754;2024-03-25T21:14:57;20.67;;;8.00;;
21183;SDS011;18176;49.502;11.754;2024-03-25T21:19:14;20.10;;;8.67;;
21183;SDS011;18176;49.502;11.754;2024-03-25T21:23:33;17.27;;;7.20;;
21183;SDS011;18176;49.502;11.754;2024-03-25T21:27:50;15.40;;;7.80;;
21183;SDS011;18176;49.502;11.754;2024-03-25T21:32:07;12.57;;;6.77;;
21183;SDS011;18176;49.502;11.754;2024-03-25T21:36:24;17.37;;;7.67;;
21183;SDS011;18176;49.502;11.754;2024-03-25T21:40:44;17.07;;;7.37;;
21183;SDS011;18176;49.502;11.754;2024-03-25T21:45:01;14.63;;;6.57;;
21183;SDS011;18176;49.502;11.754;2024-03-25T21:49:18;13.47;;;6.90;;
21183;SDS011;18176;49.502;11.754;2024-03-25T21:53:34;18.23;;;8.90;;
21183;SDS011;18176;49.502;11.754;2024-03-25T21:57:54;13.93;;;7.30;;
21183;SDS011;18176;49.502;11.754;2024-03-25T22:02:11;10.57;;;6.20;;
21183;SDS011;18176;49.502;11.754;2024-03-25T22:06:27;12.47;;;7.47;;
21183;SDS011;18176;49.502;11.754;2024-03-25T22:10:44;13.43;;;7.27;;
21183;SDS011;18176;49.502;11.754;2024-03-25T22:15:04;13.10;;;6.60;;
21183;SDS011;18176;49.502;11.754;2024-03-25T22:19:22;15.27;;;7.13;;
21183;SDS011;18176;49.502;11.754;2024-03-25T22:23:39;12.47;;;6.70;;
21183;SDS011;18176;49.502;11.754;2024-03-25T22:27:56;9.60;;;5.50;;
21183;SDS011;18176;49.502;11.754;2024-03-25T22:32:15;12.63;;;5.93;;
21183;SDS011;18176;49.502;11.754;2024-03-25T22:36:32;9.67;;;5.67;;
21183;SDS011;18176;49.502;11.754;2024-03-25T22:40:49;10.57;;;6.77;;
21183;SDS011;18176;49.502;11.754;2024-03-25T22:45:07;10.63;;;6.70;;
21183;SDS011;18176;49.502;11.754;2024-03-25T22:49:27;9.47;;;6.67;;
21183;SDS011;18176;49.502;11.754;2024-03-25T22:53:44;10.27;;;6.17;;
21183;SDS011;18176;49.502;11.754;2024-03-25T22:58:01;10.27;;;6.10;;
21183;SDS011;18176;49.502;11.754;2024-03-25T23:02:19;11.60;;;5.70;;
21183;SDS011;18176;49.502;11.754;2024-03-25T23:06:39;10.00;;;6.00;;
21183;SDS011;18176;49.502;11.754;2024-03-25T23:10:56;10.90;;;5.37;;
21183;SDS011;18176;49.502;11.754;2024-03-25T23:15:15;11.40;;;5.50;;
21183;SDS011;18176;49.502;11.754;2024-03-25T23:19:32;9.77;;;5.37;;
21183;SDS011;18176;49.502;11.754;2024-03-25T23:23:51;7.77;;;4.70;;
21183;SDS011;18176;49.502;11.754;2024-03-25T23:28:09;9.57;;;5.03;;
21183;SDS011;18176;49.502;11.754;2024-03-25T23:32:27;7.80;;;5.30;;
21183;SDS011;18176;49.502;11.754;2024-03-25T23:36:44;7.17;;;4.57;;
21183;SDS011;18176;49.502;11.754;2024-03-25T23:41:04;6.73;;;4.67;;
21183;SDS011;18176;49.502;11.754;2024-03-25T23:45:21;8.03;;;5.20;;
21183;SDS011;18176;49.502;11.754;2024-03-25T23:49:38;8.60;;;5.20;;
21183;SDS011;18176;49.502;11.754;2024-03-25T23:53:55;8.97;;;5.10;;
21183;SDS011;18176;49.502;11.754;2024-03-25T23:58:15;9.47;;;5.20;;
